Time;durP1;ratioP1;P1;durP2;ratioP2;P2;SDS_P1;SDS_P2;PMS_P1;PMS_P2;Temp;Humidity;BMP_temperature;BMP_pressure;BME280_temperature;BME280_humidity;BME280_pressure;Samples;Min_cycle;Max_cycle;Signal;HPM_P1;HPM_P2
2022/06/02 00:01:04;;;;;;;6.80;4.10;;;;;;;14.80;61.71;100346.69;106333;1270;22689;-74
2022/06/02 00:03:54;;;;;;;8.30;5.50;;;;;;;14.69;61.69;100334.73;106497;1270;22468;-73
2022/06/02 00:06:40;;;;;;;6.30;5.40;;;;;;;14.65;62.04;100328.46;106469;1270;22560;-74
2022/06/02 00:09:19;;;;;;;6.20;5.60;;;;;;;14.59;61.87;100322.23;105742;1276;22527;-74
2022/06/02 00:11:53;;;;;;;5.80;5.20;;;;;;;14.56;62.06;100318.79;105671;1276;22629;-75
2022/06/02 00:14:32;;;;;;;6.50;5.20;;;;;;;14.54;62.04;100329.45;105706;1276;25294;-72
2022/06/02 00:17:07;;;;;;;5.70;5.10;;;;;;;14.51;62.22;100342.30;105723;1274;22517;-74
2022/06/02 00:19:56;;;;;;;6.30;5.00;;;;;;;14.50;62.45;100346.94;105828;1275;23359;-74
2022/06/02 00:23:01;;;;;;;6.60;4.90;;;;;;;14.52;62.56;100345.99;105910;1274;25365;-73
2022/06/02 00:26:07;;;;;;;7.20;4.80;;;;;;;14.55;62.34;100347.35;105542;1276;25486;-73
2022/06/02 00:28:59;;;;;;;7.60;5.30;;;;;;;14.55;62.49;100345.73;106040;1270;22522;-75
2022/06/02 00:31:51;;;;;;;5.30;4.80;;;;;;;14.55;62.28;100338.66;106220;1270;24055;-75
2022/06/02 00:34:31;;;;;;;6.90;4.50;;;;;;;14.51;62.27;100343.53;106465;1270;23974;-81
2022/06/02 00:37:04;;;;;;;7.30;5.10;;;;;;;14.53;62.29;100341.91;106049;1270;22733;-78
2022/06/02 00:39:34;;;;;;;5.90;4.90;;;;;;;14.54;62.25;100344.88;106053;1270;22594;-75
2022/06/02 00:42:25;;;;;;;5.30;4.80;;;;;;;14.55;62.04;100353.18;106184;1270;23964;-75
2022/06/02 00:44:58;;;;;;;5.90;4.90;;;;;;;14.52;61.85;100355.55;105604;1277;24221;-73
2022/06/02 00:47:31;;;;;;;7.10;4.70;;;;;;;14.54;61.54;100357.09;105709;1276;22581;-79
2022/06/02 00:50:20;;;;;;;6.20;4.60;;;;;;;14.54;61.41;100355.87;105766;1276;22561;-78
2022/06/02 00:53:10;;;;;;;5.00;4.50;;;;;;;14.55;61.31;100356.90;105647;1276;25351;-74
2022/06/02 00:59:28;;;;;;;4.70;4.10;;;;;;;14.61;61.01;100374.11;105614;1275;22529;-75
2022/06/02 01:01:55;;;;;;;8.70;5.00;;;;;;;14.63;61.08;100385.93;105667;1276;22510;-74
2022/06/02 01:04:23;;;;;;;6.60;5.10;;;;;;;14.65;60.95;100385.17;105971;1270;24537;-75
2022/06/02 01:06:59;;;;;;;6.50;4.70;;;;;;;14.66;61.05;100388.15;106068;1270;25335;-76
2022/06/02 01:09:35;;;;;;;;;;;;;;;14.68;60.98;100391.66;106272;1270;25220;-75
2022/06/02 01:12:27;;;;;;;4.20;3.50;;;;;;;14.68;60.92;100394.66;106283;1270;22537;-77
2022/06/02 01:14:53;;;;;;;5.10;4.60;;;;;;;14.65;60.93;100392.23;106298;1270;22531;-76
2022/06/02 01:17:39;;;;;;;6.10;4.50;;;;;;;14.64;60.84;100389.45;106410;1270;24300;-74
2022/06/02 01:20:38;;;;;;;7.40;4.90;;;;;;;14.64;60.85;100396.54;106241;1270;22535;-76
2022/06/02 01:23:27;;;;;;;6.00;4.70;;;;;;;14.65;60.77;100398.46;106082;1270;22555;-75
2022/06/02 01:26:16;;;;;;;5.90;4.70;;;;;;;14.66;60.90;100397.37;106190;1270;22522;-76
2022/06/02 01:28:57;;;;;;;6.60;4.50;;;;;;;14.68;60.84;100394.84;106348;1270;22557;-77
2022/06/02 01:31:49;;;;;;;5.90;4.60;;;;;;;14.66;60.81;100386.05;106390;1270;23965;-76
2022/06/02 01:34:33;;;;;;;6.80;4.30;;;;;;;14.66;60.75;100384.78;106147;1270;25251;-76
2022/06/02 01:37:05;;;;;;;4.60;4.20;;;;;;;14.67;60.58;100383.17;106183;1270;22554;-72
2022/06/02 01:39:38;;;;;;;5.00;4.20;;;;;;;14.68;60.59;100374.65;106141;1270;25349;-78
2022/06/02 01:42:38;;;;;;;4.50;4.10;;;;;;;14.68;60.48;100371.80;106146;1270;25513;-80
2022/06/02 01:45:28;;;;;;;4.80;4.10;;;;;;;14.69;60.51;100373.38;106338;1270;22863;-79
2022/06/02 01:48:20;;;;;;;5.20;4.10;;;;;;;14.68;60.64;100374.99;106103;1271;22677;-79
2022/06/02 01:51:25;;;;;;;6.10;4.90;;;;;;;14.66;60.65;100373.98;106152;1270;26498;-76
2022/06/02 01:54:08;;;;;;;5.40;4.30;;;;;;;14.64;60.53;100375.45;106654;1270;22526;-77
2022/06/02 01:57:10;;;;;;;5.40;4.20;;;;;;;14.62;60.58;100365.77;106342;1270;25438;-75
2022/06/02 02:00:08;;;;;;;8.00;7.20;;;;;;;14.62;60.59;100346.61;106354;1270;22650;-71
2022/06/02 02:02:57;;;;;;;16.20;14.50;;;;;;;14.64;60.50;100344.26;106167;1270;24084;-70
2022/06/02 02:05:55;;;;;;;29.40;25.80;;;;;;;14.64;60.41;100341.61;106239;1270;24413;-73
2022/06/02 02:08:40;;;;;;;23.30;20.90;;;;;;;14.60;60.41;100329.83;106058;1270;22764;-75
2022/06/02 02:11:36;;;;;;;21.80;19.60;;;;;;;14.64;60.35;100322.12;106328;1270;22687;-75
2022/06/02 02:14:06;;;;;;;19.60;16.80;;;;;;;14.64;60.39;100305.80;106389;1270;22525;-73
2022/06/02 02:17:11;;;;;;;17.90;15.10;;;;;;;14.66;60.12;100302.20;106271;1270;22613;-79
2022/06/02 02:19:56;;;;;;;17.50;12.40;;;;;;;14.65;60.02;100299.39;106306;1270;25650;-74
2022/06/02 02:22:50;;;;;;;13.00;10.20;;;;;;;14.65;60.15;100305.25;106498;1269;22537;-76
2022/06/02 02:25:29;;;;;;;11.20;9.30;;;;;;;14.62;60.16;100312.23;106445;1270;25230;-75
2022/06/02 02:28:07;;;;;;;10.00;9.10;;;;;;;14.61;60.56;100328.19;106235;1270;26473;-78
2022/06/02 02:30:44;;;;;;;8.60;7.80;;;;;;;14.62;60.80;100335.97;106424;1270;22684;-77
2022/06/02 02:33:38;;;;;;;9.30;8.30;;;;;;;14.57;60.76;100335.41;106164;1270;22550;-75
2022/06/02 02:36:25;;;;;;;8.70;7.90;;;;;;;14.54;61.01;100328.21;106223;1270;25287;-75
2022/06/02 02:39:35;;;;;;;8.00;7.20;;;;;;;14.56;61.67;100338.81;106282;1270;25235;-73
2022/06/02 02:42:39;;;;;;;6.20;5.10;;;;;;;14.57;62.40;100342.66;106022;1271;25584;-73
2022/06/02 02:45:21;;;;;;;8.80;4.20;;;;;;;14.57;62.93;100354.20;106336;1270;22529;-76
2022/06/02 02:48:26;;;;;;;8.70;6.00;;;;;;;14.53;63.05;100364.94;106460;1270;22525;-76
2022/06/02 02:51:13;;;;;;;7.80;4.80;;;;;;;14.47;63.34;100390.23;105942;1273;22691;-76
2022/06/02 02:54:15;;;;;;;5.40;4.60;;;;;;;14.38;63.88;100395.61;106214;1270;25306;-76
2022/06/02 02:57:10;;;;;;;6.10;4.40;;;;;;;14.32;64.05;100410.99;106100;1270;22535;-76
2022/06/02 03:00:05;;;;;;;6.40;5.00;;;;;;;14.21;64.22;100422.92;106315;1270;22541;-77
2022/06/02 03:02:40;;;;;;;6.00;5.30;;;;;;;14.13;64.38;100428.09;105696;1276;25013;-76
2022/06/02 03:05:26;;;;;;;6.20;4.60;;;;;;;14.07;64.90;100429.96;105832;1276;25250;-76
2022/06/02 03:08:05;;;;;;;7.60;5.40;;;;;;;14.05;65.01;100430.73;105885;1276;22548;-76
2022/06/02 03:10:38;;;;;;;5.30;4.70;;;;;;;14.04;65.21;100437.66;105760;1276;22560;-75
2022/06/02 03:13:23;;;;;;;4.50;4.10;;;;;;;14.01;65.31;100448.35;105922;1276;25423;-74
2022/06/02 03:16:06;;;;;;;6.60;4.40;;;;;;;14.04;65.62;100465.48;105943;1276;25318;-74
2022/06/02 03:19:00;;;;;;;6.30;4.30;;;;;;;14.00;65.78;100467.85;105821;1276;22548;-75
2022/06/02 03:21:41;;;;;;;4.80;4.20;;;;;;;13.94;65.89;100478.79;105984;1270;24313;-76
2022/06/02 03:24:29;;;;;;;5.90;4.30;;;;;;;13.90;66.31;100475.16;102799;1310;545051;-74
2022/06/02 03:27:21;;;;;;;7.30;4.70;;;;;;;13.85;66.70;100483.23;105047;1284;22593;-75
2022/06/02 03:29:52;;;;;;;5.70;5.10;;;;;;;13.73;67.24;100479.92;105358;1281;24234;-74
2022/06/02 03:32:47;;;;;;;6.50;4.90;;;;;;;13.69;67.54;100486.02;105661;1279;23182;-76
2022/06/02 03:35:49;;;;;;;7.10;4.90;;;;;;;13.68;67.72;100495.42;105569;1281;25428;-72
2022/06/02 03:39:04;;;;;;;5.00;4.50;;;;;;;13.70;67.75;100505.13;105169;1278;223896;-76
2022/06/02 03:42:02;;;;;;;6.70;4.50;;;;;;;13.73;67.61;100507.34;105575;1278;22547;-73
2022/06/02 03:44:52;;;;;;;5.70;3.90;;;;;;;13.76;67.78;100515.63;105925;1278;24440;-74
2022/06/02 03:47:32;;;;;;;6.30;4.30;;;;;;;13.76;67.91;100508.54;105695;1280;25310;-73
2022/06/02 03:50:26;;;;;;;5.50;4.60;;;;;;;13.74;67.90;100489.48;105725;1278;22540;-78
2022/06/02 03:53:18;;;;;;;4.50;4.10;;;;;;;13.70;67.97;100473.27;105975;1278;23907;-74
2022/06/02 03:56:04;;;;;;;8.00;4.20;;;;;;;13.70;67.98;100461.40;105877;1278;26503;-76
2022/06/02 03:58:44;;;;;;;5.60;4.40;;;;;;;13.72;68.05;100452.52;106000;1276;24261;-76
2022/06/02 04:01:18;;;;;;;4.90;4.00;;;;;;;13.74;68.14;100459.54;105801;1278;25244;-76
2022/06/02 04:04:12;;;;;;;4.80;4.10;;;;;;;13.72;68.06;100463.13;105860;1278;25249;-78
2022/06/02 04:07:11;;;;;;;4.60;4.20;;;;;;;13.71;68.26;100459.26;105865;1278;22550;-78
2022/06/02 04:09:44;;;;;;;4.80;4.30;;;;;;;13.73;68.25;100467.00;106117;1278;22553;-76
2022/06/02 04:15:31;;;;;;;7.30;3.60;;;;;;;13.75;68.72;100478.48;105998;1275;22647;-78
2022/06/02 04:18:17;;;;;;;4.90;3.90;;;;;;;13.78;69.10;100485.68;105969;1275;25427;-77
2022/06/02 04:21:18;;;;;;;4.90;4.40;;;;;;;13.79;69.01;100492.19;106051;1275;25323;-80
2022/06/02 04:23:59;;;;;;;5.50;4.70;;;;;;;13.82;69.07;100498.85;105984;1277;22746;-84
2022/06/02 04:26:26;;;;;;;5.20;4.20;;;;;;;13.79;69.18;100504.58;105947;1277;22693;-84
2022/06/02 04:29:14;;;;;;;4.60;4.10;;;;;;;13.76;69.27;100502.70;106134;1275;22745;-85
2022/06/02 04:31:48;;;;;;;4.80;3.60;;;;;;;13.69;69.55;100495.59;106120;1275;22528;-84
2022/06/02 04:34:43;;;;;;;5.40;4.10;;;;;;;13.62;69.86;100501.73;106112;1277;22474;-82
2022/06/02 04:37:31;;;;;;;6.90;4.10;;;;;;;13.55;70.05;100500.44;106177;1277;22528;-84
2022/06/02 04:40:17;;;;;;;5.60;3.80;;;;;;;13.52;70.51;100492.03;106055;1277;24261;-82
2022/06/02 04:43:03;;;;;;;4.30;3.90;;;;;;;13.41;70.43;100496.27;106149;1277;24291;-84
2022/06/02 04:45:49;;;;;;;3.70;3.30;;;;;;;13.35;70.77;100493.02;105870;1278;25557;-78
2022/06/02 04:48:43;;;;;;;4.00;2.70;;;;;;;13.32;70.83;100498.40;105948;1278;25417;-80
2022/06/02 04:51:31;;;;;;;4.30;3.90;;;;;;;13.29;71.02;100504.27;105903;1277;22542;-77
2022/06/02 04:54:37;;;;;;;3.60;3.20;;;;;;;13.30;71.31;100506.92;105791;1280;23922;-75
2022/06/02 04:57:28;;;;;;;5.20;3.30;;;;;;;13.27;71.35;100506.98;105697;1278;25625;-77
2022/06/02 05:00:17;;;;;;;4.50;3.80;;;;;;;13.21;71.42;100502.83;106026;1278;25246;-81
2022/06/02 05:03:21;;;;;;;3.90;3.00;;;;;;;13.19;71.72;100502.69;105884;1277;22559;-77
2022/06/02 05:06:06;;;;;;;4.10;3.30;;;;;;;13.20;72.15;100499.67;105988;1277;22771;-77
2022/06/02 05:08:54;;;;;;;5.50;4.00;;;;;;;13.22;71.99;100495.20;105892;1277;22601;-77
2022/06/02 05:11:57;;;;;;;4.20;3.80;;;;;;;13.24;72.17;100495.01;105997;1278;25225;-80
2022/06/02 05:18:55;;;;;;;4.80;3.40;;;;;;;13.21;72.41;100501.59;105754;1277;25452;-78
2022/06/02 05:21:49;;;;;;;5.50;3.20;;;;;;;13.27;72.64;100496.90;105773;1277;22636;-76
2022/06/02 05:24:55;;;;;;;5.20;3.50;;;;;;;13.29;72.64;100494.56;105980;1278;22724;-78
2022/06/02 05:31:36;;;;;;;5.00;3.40;;;;;;;13.46;72.87;100484.52;105640;1280;24272;-77
2022/06/02 05:34:24;;;;;;;7.20;3.40;;;;;;;13.54;73.02;100487.39;105499;1283;22567;-84
2022/06/02 05:37:21;;;;;;;4.50;3.10;;;;;;;13.59;72.95;100488.86;105948;1277;22667;-81
2022/06/02 05:39:54;;;;;;;4.60;3.20;;;;;;;13.55;72.60;100481.54;105738;1280;22551;-83
2022/06/02 05:42:36;;;;;;;5.10;2.90;;;;;;;13.59;72.53;100481.26;105588;1281;25330;-83
2022/06/02 05:45:08;;;;;;;6.00;3.50;;;;;;;13.60;72.57;100480.91;106002;1277;24289;-83
2022/06/02 05:48:02;;;;;;;4.60;3.30;;;;;;;13.67;72.61;100485.36;106006;1275;24416;-84
2022/06/02 05:50:41;;;;;;;4.00;3.10;;;;;;;13.74;72.75;100480.45;106018;1277;23084;-82
2022/06/02 05:53:27;;;;;;;4.90;3.40;;;;;;;13.86;72.93;100490.28;105995;1274;23921;-82
2022/06/02 05:56:06;;;;;;;4.60;3.50;;;;;;;13.95;72.96;100478.58;106111;1275;24307;-81
2022/06/02 05:58:49;;;;;;;4.80;3.70;;;;;;;14.01;72.41;100481.65;105818;1277;22745;-83
2022/06/02 06:01:37;;;;;;;3.70;3.20;;;;;;;14.03;72.38;100488.15;105764;1277;22522;-83
2022/06/02 06:04:22;;;;;;;5.40;4.80;;;;;;;14.04;72.74;100490.09;106056;1274;23942;-83
2022/06/02 06:06:56;;;;;;;3.30;3.00;;;;;;;14.04;72.31;100502.83;106140;1274;25242;-84
2022/06/02 06:09:44;;;;;;;4.70;3.10;;;;;;;13.98;72.11;100521.36;106031;1274;22693;-83
2022/06/02 06:12:33;;;;;;;3.20;2.90;;;;;;;13.95;72.08;100530.11;105850;1277;22725;-83
2022/06/02 06:15:18;;;;;;;4.30;3.30;;;;;;;13.97;72.19;100533.44;106020;1274;23946;-81
2022/06/02 06:18:08;;;;;;;4.20;3.20;;;;;;;14.00;72.10;100519.73;106020;1275;25232;-82
2022/06/02 06:20:57;;;;;;;4.10;3.20;;;;;;;14.03;72.02;100510.10;105914;1274;22851;-82
2022/06/02 06:23:48;;;;;;;5.60;3.30;;;;;;;14.16;72.50;100505.03;105817;1274;25408;-83
2022/06/02 06:26:45;;;;;;;4.20;3.20;;;;;;;14.29;72.58;100487.58;105998;1278;24220;-82
2022/06/02 06:29:21;;;;;;;3.70;2.70;;;;;;;14.31;71.81;100488.93;106060;1274;22537;-83
2022/06/02 06:32:00;;;;;;;3.20;2.90;;;;;;;14.36;71.70;100504.24;106192;1275;24313;-82
2022/06/02 06:34:43;;;;;;;5.50;3.70;;;;;;;14.40;71.54;100511.60;106033;1274;22550;-79
2022/06/02 06:37:16;;;;;;;3.90;3.40;;;;;;;14.40;71.74;100516.93;105954;1274;22768;-82
2022/06/02 06:40:05;;;;;;;5.50;3.20;;;;;;;14.40;71.77;100523.30;105972;1275;22735;-80
2022/06/02 06:42:35;;;;;;;3.60;3.20;;;;;;;14.35;71.52;100525.52;106463;1274;22584;-80
2022/06/02 06:45:19;;;;;;;4.00;3.60;;;;;;;14.34;71.40;100526.09;106853;1274;22471;-80
2022/06/02 06:47:53;;;;;;;4.40;3.30;;;;;;;14.34;71.09;100528.02;106466;1274;25359;-82
2022/06/02 06:50:31;;;;;;;5.50;4.10;;;;;;;14.47;71.49;100526.68;106251;1278;25532;-79
2022/06/02 06:53:17;;;;;;;5.60;4.20;;;;;;;14.70;71.32;100520.11;105953;1277;22554;-78
2022/06/02 06:55:50;;;;;;;;;;;;;;;15.00;70.96;100519.21;106170;1274;25420;-80
2022/06/02 06:58:55;;;;;;;7.00;5.20;;;;;;;15.19;70.33;100525.84;106226;1274;22550;-80
2022/06/02 07:01:41;;;;;;;3.80;3.40;;;;;;;15.37;69.81;100523.77;106119;1277;24348;-80
2022/06/02 07:04:21;;;;;;;3.40;3.10;;;;;;;15.44;69.52;100526.25;106199;1274;25238;-82
2022/06/02 07:06:54;;;;;;;5.40;2.90;;;;;;;15.54;68.78;100531.99;105950;1274;25451;-85
2022/06/02 07:09:41;;;;;;;2.50;2.30;;;;;;;15.66;68.67;100535.05;106237;1274;22608;-84
2022/06/02 07:15:16;;;;;;;2.70;2.10;;;;;;;15.92;68.04;100535.39;106048;1274;25300;-83
2022/06/02 07:17:48;;;;;;;2.30;1.80;;;;;;;16.01;67.81;100539.95;106157;1274;23717;-85
2022/06/02 07:20:46;;;;;;;4.40;1.80;;;;;;;16.01;67.36;100533.55;106058;1277;22609;-83
2022/06/02 07:23:15;;;;;;;2.00;1.70;;;;;;;16.05;67.09;100541.95;105928;1275;22544;-85
2022/06/02 07:25:54;;;;;;;2.80;1.90;;;;;;;16.05;67.40;100546.93;105610;1280;24218;-84
2022/06/02 07:28:57;;;;;;;3.30;1.70;;;;;;;16.05;67.23;100549.77;105497;1281;22589;-85
2022/06/02 07:31:49;;;;;;;2.00;1.60;;;;;;;16.04;66.77;100556.73;105723;1281;22816;-84
2022/06/02 07:34:47;;;;;;;2.90;1.60;;;;;;;16.06;66.80;100557.22;105459;1281;22554;-83
2022/06/02 07:37:24;;;;;;;3.20;1.60;;;;;;;16.14;66.42;100556.79;105673;1281;22846;-83
2022/06/02 07:40:08;;;;;;;3.20;1.60;;;;;;;16.25;66.17;100558.45;105614;1281;24300;-83
2022/06/02 07:43:00;;;;;;;1.90;1.60;;;;;;;16.28;66.07;100562.45;105322;1284;24295;-83
2022/06/02 07:45:44;;;;;;;1.90;1.40;;;;;;;16.22;65.29;100560.30;105638;1277;22544;-84
2022/06/02 07:48:14;;;;;;;1.50;1.30;;;;;;;16.18;65.24;100569.84;105893;1275;22540;-85
2022/06/02 07:50:51;;;;;;;1.80;1.70;;;;;;;16.17;64.71;100582.84;106035;1274;22538;-84
2022/06/02 07:53:54;;;;;;;1.80;1.30;;;;;;;16.28;64.83;100585.54;105888;1278;25296;-85
2022/06/02 07:56:34;;;;;;;1.70;1.50;;;;;;;16.37;64.99;100583.48;105674;1277;22665;-84
2022/06/02 07:59:18;;;;;;;2.00;1.30;;;;;;;16.43;64.73;100592.02;106535;1274;22664;-83
2022/06/02 08:02:19;;;;;;;1.80;1.60;;;;;;;16.44;64.84;100595.38;106630;1274;25238;-85
2022/06/02 08:05:01;;;;;;;2.10;1.40;;;;;;;16.37;64.50;100601.98;105941;1281;22555;-83
2022/06/02 08:07:54;;;;;;;1.60;1.50;;;;;;;16.18;64.73;100603.92;106488;1280;23826;-84
2022/06/02 08:10:40;;;;;;;2.40;1.70;;;;;;;16.04;65.54;100595.13;106958;1281;25065;-83
2022/06/02 08:13:26;;;;;;;1.80;1.70;;;;;;;15.92;65.78;100601.99;106706;1280;25373;-84
2022/06/02 08:16:16;;;;;;;2.50;1.80;;;;;;;15.87;66.34;100612.24;107277;1280;23071;-82
2022/06/02 08:18:52;;;;;;;3.60;1.90;;;;;;;15.87;65.86;100620.24;107099;1280;24201;-84
2022/06/02 08:21:53;;;;;;;2.00;1.90;;;;;;;15.83;65.65;100623.71;106758;1280;26623;-84
2022/06/02 08:24:36;;;;;;;3.50;2.20;;;;;;;15.76;65.55;100634.39;106391;1274;25563;-82
2022/06/02 08:27:32;;;;;;;3.90;2.00;;;;;;;15.70;65.72;100642.89;106527;1275;23378;-83
2022/06/02 08:30:23;;;;;;;4.60;2.30;;;;;;;15.71;65.89;100639.99;106543;1274;23330;-84
2022/06/02 08:33:19;;;;;;;1.70;1.60;;;;;;;15.76;64.57;100642.55;106210;1274;22241;-84
2022/06/02 08:36:07;;;;;;;4.50;2.00;;;;;;;15.73;63.96;100644.94;105818;1278;24217;-86
2022/06/02 08:39:09;;;;;;;1.80;1.70;;;;;;;15.71;63.71;100641.78;106523;1275;22548;-83
2022/06/02 08:42:11;;;;;;;2.60;2.30;;;;;;;15.75;63.34;100642.92;106894;1274;22686;-83
2022/06/02 08:44:37;;;;;;;5.20;2.20;;;;;;;15.76;62.90;100644.14;106770;1274;22540;-82
2022/06/02 08:47:33;;;;;;;2.50;2.20;;;;;;;15.78;63.02;100648.89;106898;1274;22497;-84
2022/06/02 08:50:10;;;;;;;4.20;2.10;;;;;;;15.84;63.08;100645.89;106741;1274;23068;-83
2022/06/02 08:52:55;;;;;;;2.10;1.90;;;;;;;15.90;62.23;100649.45;106190;1274;25396;-84
2022/06/02 08:55:44;;;;;;;1.70;1.60;;;;;;;15.98;61.67;100638.77;107011;1274;23341;-83
2022/06/02 08:58:37;;;;;;;1.60;1.40;;;;;;;16.12;61.14;100640.89;106554;1274;22586;-86
2022/06/02 09:01:41;;;;;;;1.70;1.50;;;;;;;16.12;60.14;100647.31;107063;1271;22518;-83
2022/06/02 09:04:30;;;;;;;3.20;1.90;;;;;;;16.01;59.77;100641.02;107116;1271;22530;-84
2022/06/02 09:07:17;;;;;;;2.60;1.30;;;;;;;15.89;60.00;100636.52;106808;1271;24263;-84
2022/06/02 09:10:28;;;;;;;2.60;1.50;;;;;;;15.86;60.58;100650.45;106326;1271;22685;-84
2022/06/02 09:13:26;;;;;;;3.40;1.80;;;;;;;15.82;60.58;100661.92;106290;1274;23941;-83
2022/06/02 09:16:20;;;;;;;3.10;1.50;;;;;;;15.80;60.70;100671.38;106357;1271;22556;-80
2022/06/02 09:19:10;;;;;;;1.80;1.50;;;;;;;15.94;60.50;100671.20;106270;1271;22543;-83
2022/06/02 09:22:03;;;;;;;1.90;1.70;;;;;;;16.17;59.75;100671.31;106199;1271;22604;-83
2022/06/02 09:24:47;;;;;;;1.90;1.50;;;;;;;16.27;59.84;100668.19;105710;1278;24268;-83
2022/06/02 09:27:26;;;;;;;4.00;1.40;;;;;;;16.38;59.43;100659.55;105997;1278;25305;-83
2022/06/02 09:29:59;;;;;;;1.10;1.00;;;;;;;16.34;57.88;100657.33;105728;1279;25385;-84
2022/06/02 09:32:54;;;;;;;1.90;1.30;;;;;;;16.27;57.89;100646.16;105798;1277;22652;-82
2022/06/02 09:35:33;;;;;;;2.70;1.20;;;;;;;16.33;57.46;100648.29;105849;1277;25847;-81
2022/06/02 09:38:12;;;;;;;1.30;1.20;;;;;;;16.48;57.61;100637.73;105643;1281;24231;-83
2022/06/02 09:40:47;;;;;;;2.30;1.10;;;;;;;16.80;58.37;100634.11;105711;1281;25387;-85
2022/06/02 09:43:38;;;;;;;2.90;1.10;;;;;;;17.09;57.48;100637.12;105937;1277;22676;-82
2022/06/02 09:46:48;;;;;;;2.00;1.10;;;;;;;17.37;55.97;100638.02;105912;1277;22546;-82
2022/06/02 09:49:31;;;;;;;1.40;1.10;;;;;;;17.60;55.01;100643.27;105477;1278;22654;-84
2022/06/02 09:52:15;;;;;;;2.00;0.80;;;;;;;17.71;52.60;100646.13;106303;1277;22623;-84
2022/06/02 09:55:00;;;;;;;0.80;0.60;;;;;;;17.65;51.34;100642.59;106533;1278;25394;-83
2022/06/02 10:00:30;;;;;;;0.90;0.80;;;;;;;17.89;50.79;100639.41;106887;1271;22478;-82
2022/06/02 10:03:22;;;;;;;0.80;0.70;;;;;;;17.93;49.68;100631.65;106877;1271;25521;-85
2022/06/02 10:06:08;;;;;;;0.70;0.60;;;;;;;18.06;49.72;100634.92;106854;1274;22547;-84
2022/06/02 10:08:58;;;;;;;0.60;0.60;;;;;;;18.25;49.23;100637.08;106405;1276;24210;-82
2022/06/02 10:11:25;;;;;;;0.70;0.60;;;;;;;18.42;49.02;100636.84;106627;1276;26500;-82
2022/06/02 10:13:59;;;;;;;0.40;0.40;;;;;;;18.55;48.37;100640.77;107344;1277;25433;-84
2022/06/02 10:16:53;;;;;;;0.50;0.50;;;;;;;18.71;48.61;100637.33;105992;1276;25523;-84
2022/06/02 10:19:30;;;;;;;1.00;0.30;;;;;;;18.93;47.88;100640.21;106210;1276;22580;-84
2022/06/02 10:22:24;;;;;;;0.60;0.60;;;;;;;18.99;46.20;100649.98;105975;1276;25232;-85
2022/06/02 10:25:39;;;;;;;1.40;1.10;;;;;;;18.91;45.85;100650.99;105862;1278;22537;-85
2022/06/02 10:28:24;;;;;;;0.70;0.50;;;;;;;18.99;45.77;100652.30;106330;1271;22489;-83
2022/06/02 10:31:17;;;;;;;0.30;0.30;;;;;;;19.05;45.54;100651.69;106403;1271;25350;-86
2022/06/02 10:34:18;;;;;;;1.30;0.40;;;;;;;19.03;45.03;100650.86;106426;1271;26481;-83
2022/06/02 10:37:24;;;;;;;0.60;0.60;;;;;;;19.06;44.90;100646.66;106653;1271;25582;-83
2022/06/02 10:40:38;;;;;;;0.40;0.40;;;;;;;19.17;45.52;100646.77;106269;1280;25265;-83
2022/06/02 10:43:33;;;;;;;0.80;0.60;;;;;;;19.36;44.33;100652.08;106893;1281;24247;-83
2022/06/02 10:46:18;;;;;;;1.50;0.40;;;;;;;19.49;44.05;100644.55;106769;1279;23088;-84
2022/06/02 10:49:02;;;;;;;1.00;0.50;;;;;;;19.71;44.04;100638.83;107386;1279;22519;-82
2022/06/02 10:52:03;;;;;;;0.50;0.50;;;;;;;19.88;43.93;100642.76;107265;1279;22701;-82
2022/06/02 10:54:45;;;;;;;0.70;0.70;;;;;;;19.82;44.28;100639.78;107736;1279;25256;-83
2022/06/02 10:57:34;;;;;;;0.60;0.60;;;;;;;19.80;44.60;100634.14;106035;1279;22541;-85
2022/06/02 11:00:16;;;;;;;1.70;0.50;;;;;;;20.05;44.12;100635.21;105728;1280;26526;-82
2022/06/02 11:03:24;;;;;;;0.60;0.60;;;;;;;20.25;44.26;100635.22;105589;1280;24276;-86
2022/06/02 11:06:25;;;;;;;0.60;0.60;;;;;;;20.31;43.32;100640.85;105724;1279;22708;-85
2022/06/02 11:09:12;;;;;;;1.50;0.50;;;;;;;20.27;43.26;100636.00;105236;1284;24329;-84
2022/06/02 11:12:01;;;;;;;2.00;0.60;;;;;;;20.36;42.85;100639.74;105350;1284;25412;-81
2022/06/02 11:14:47;;;;;;;4.80;0.70;;;;;;;20.50;42.64;100631.73;105108;1286;24223;-83
2022/06/02 11:18:06;;;;;;;1.80;0.50;;;;;;;20.37;42.49;100635.94;105994;1277;22523;-81
2022/06/02 11:20:58;;;;;;;1.80;0.90;;;;;;;20.52;42.72;100638.13;105124;1281;23964;-81
2022/06/02 11:23:40;;;;;;;0.30;0.30;;;;;;;20.73;42.36;100649.45;105391;1281;22552;-81
2022/06/02 11:26:26;;;;;;;0.40;0.40;;;;;;;20.80;41.99;100632.30;105726;1281;25434;-84
2022/06/02 11:29:18;;;;;;;0.80;0.50;;;;;;;21.05;41.77;100648.69;106079;1277;23522;-83
2022/06/02 11:32:00;;;;;;;0.40;0.40;;;;;;;21.10;40.45;100642.38;106060;1277;25413;-83
2022/06/02 11:35:05;;;;;;;0.60;0.60;;;;;;;21.06;39.11;100639.00;105996;1277;22540;-81
2022/06/02 11:38:03;;;;;;;0.90;0.70;;;;;;;21.15;39.44;100648.91;106130;1277;22519;-84
2022/06/02 11:40:58;;;;;;;0.60;0.50;;;;;;;21.21;38.86;100644.71;106649;1271;24167;-81
2022/06/02 11:43:57;;;;;;;0.40;0.40;;;;;;;21.24;39.40;100640.77;106681;1271;23848;-85
2022/06/02 11:46:53;;;;;;;0.30;0.30;;;;;;;21.42;38.72;100643.98;105902;1278;25906;-83
2022/06/02 11:49:39;;;;;;;;;;;;;;;21.38;38.69;100649.38;106187;1278;22720;-82
2022/06/02 11:52:14;;;;;;;0.50;0.50;;;;;;;21.31;39.63;100650.26;106356;1277;22912;-84
2022/06/02 11:54:53;;;;;;;;;;;;;;;21.34;39.06;100653.14;106763;1277;22527;-84
2022/06/02 11:57:45;;;;;;;0.50;0.50;;;;;;;21.35;38.95;100653.11;107221;1277;25876;-83
2022/06/02 12:00:34;;;;;;;2.30;0.60;;;;;;;21.41;38.89;100652.83;107275;1277;25877;-83
2022/06/02 12:03:22;;;;;;;1.10;0.70;;;;;;;21.67;39.35;100653.48;107213;1277;23874;-84
2022/06/02 12:06:01;;;;;;;0.90;0.50;;;;;;;21.92;38.95;100646.67;107810;1271;22828;-84
2022/06/02 12:08:45;;;;;;;0.50;0.50;;;;;;;22.22;38.35;100649.55;107512;1276;25890;-84
2022/06/02 12:11:39;;;;;;;1.10;0.50;;;;;;;22.27;37.51;100642.81;107306;1277;25388;-83
2022/06/02 12:14:25;;;;;;;0.90;0.40;;;;;;;22.02;36.66;100649.89;107349;1277;22553;-84
2022/06/02 12:17:11;;;;;;;2.60;0.70;;;;;;;21.70;37.57;100659.42;106673;1277;22617;-85
2022/06/02 12:20:00;;;;;;;0.60;0.60;;;;;;;21.67;37.74;100650.79;106257;1277;24295;-82
2022/06/02 12:22:48;;;;;;;0.50;0.50;;;;;;;21.57;37.48;100659.36;106393;1276;23942;-83
2022/06/02 12:25:40;;;;;;;0.40;0.40;;;;;;;21.56;37.66;100668.19;106194;1277;22550;-82
2022/06/02 12:28:31;;;;;;;0.80;0.80;;;;;;;21.55;37.94;100668.96;106663;1271;24221;-82
2022/06/02 12:31:36;;;;;;;2.00;1.60;;;;;;;21.66;38.16;100678.08;106653;1271;22531;-85
2022/06/02 12:34:09;;;;;;;0.80;0.70;;;;;;;21.79;38.60;100672.23;106647;1271;24221;-81
2022/06/02 12:37:16;;;;;;;1.00;0.70;;;;;;;21.85;37.93;100665.88;106843;1271;22862;-83
2022/06/02 12:40:05;;;;;;;0.50;0.50;;;;;;;21.83;37.32;100671.00;107010;1271;22787;-83
2022/06/02 12:42:59;;;;;;;3.20;0.70;;;;;;;21.67;36.83;100672.13;106780;1271;22564;-85
2022/06/02 12:45:32;;;;;;;0.80;0.50;;;;;;;21.57;36.93;100673.52;106683;1271;22743;-84
2022/06/02 12:48:18;;;;;;;1.10;0.70;;;;;;;21.53;37.02;100666.91;106600;1271;23762;-85
2022/06/02 12:51:05;;;;;;;0.70;0.70;;;;;;;21.69;37.08;100673.27;106709;1271;25376;-82
2022/06/02 12:54:20;;;;;;;1.70;0.60;;;;;;;21.85;36.85;100664.63;106610;1271;25380;-83
2022/06/02 12:56:59;;;;;;;1.50;0.60;;;;;;;21.82;37.21;100668.15;105979;1279;24231;-83
2022/06/02 12:59:41;;;;;;;1.80;0.90;;;;;;;21.98;37.22;100667.88;105990;1279;22538;-84
2022/06/02 13:02:16;;;;;;;0.80;0.80;;;;;;;22.05;37.70;100665.90;106248;1271;22532;-84
2022/06/02 13:05:17;;;;;;;1.20;1.00;;;;;;;22.10;37.41;100666.55;106573;1269;22807;-84
2022/06/02 13:08:23;;;;;;;0.60;0.60;;;;;;;22.02;37.58;100663.02;106949;1270;22557;-84
2022/06/02 13:10:53;;;;;;;1.40;0.90;;;;;;;22.18;37.81;100664.46;106862;1271;25247;-86